Fleur N — 5BTG3 — position and weather

sailwx.info

Track history (hours):
 
Tides and Currents Weather Stations Pressure Air Temp Water Temp Dewpoint Dewpoint Depression Visibility Wind Speed Wind Dir Waves Ship Positions

Fleur N

Last reported at 2018-Aug-14 23:28 UTC. Time now 2018-Aug-14 23:44 UTC.
Position N 09°22' W 079°53'.

Length 212 m; draft 10.1 m.

Type: Ship (hazmat cat A). MMSI: 209787000.

Date/timePositionNaut miles runAvg speedWind from/ knotsBaromVisibWave heightAir tempDewpointWater temp
2018-Aug-14 23:28N 09°22' W 079°53'0 0.0
2018-Aug-14 22:58N 09°22' W 079°53'0 0.0
2018-Aug-14 22:28N 09°22' W 079°53'0 0.0
2018-Aug-14 21:58N 09°22' W 079°53'0 0.0
2018-Aug-14 21:28N 09°22' W 079°53'0 0.0
2018-Aug-14 20:58N 09°22' W 079°53'0 0.0
2018-Aug-14 20:28N 09°22' W 079°53'0 0.0
2018-Aug-14 19:58N 09°22' W 079°53'0 0.0
2018-Aug-14 19:31N 09°22' W 079°53'0 0.0
2018-Aug-14 18:58N 09°22' W 079°53'0 0.0
2018-Aug-14 18:29N 09°22' W 079°53'0 0.0
2018-Aug-14 17:59N 09°22' W 079°53'0 0.0
2018-Aug-14 17:29N 09°22' W 079°53'0 0.0
2018-Aug-14 16:59N 09°22' W 079°53'0 0.0
2018-Aug-14 16:29N 09°22' W 079°53'0 0.0
2018-Aug-14 15:59N 09°22' W 079°53'0 0.0
2018-Aug-14 15:29N 09°22' W 079°53'0 0.0
2018-Aug-14 14:59N 09°22' W 079°53'0 0.0
2018-Aug-14 14:29N 09°22' W 079°53'0 0.0
2018-Aug-14 13:59N 09°22' W 079°53'0 0.0
2018-Aug-14 13:29N 09°22' W 079°53'0 0.0
2018-Aug-14 12:43N 09°22' W 079°53'1 2.2
2018-Aug-14 12:29N 09°22' W 079°53'3 5.7
2018-Aug-14 11:52N 09°25' W 079°54'243 7.7
2018-Aug-13 04:11N 10°17' W 075°53'712.7
2018-Aug-13 03:41N 10°18' W 075°46'312.8
2018-Aug-13 03:27N 10°18' W 075°43'612.8
2018-Aug-13 02:59N 10°19' W 075°37'510.2
2018-Aug-13 02:30N 10°19' W 075°32'5 9.0
2018-Aug-13 01:58N 10°24' W 075°33'0 0.4
2018-Aug-13 01:20N 10°24' W 075°32'0 0.0
2018-Aug-13 00:56N 10°24' W 075°32'0 0.0
2018-Aug-13 00:29N 10°24' W 075°32'0 0.0
2018-Aug-12 23:56N 10°24' W 075°32'0 0.0
2018-Aug-12 23:19N 10°24' W 075°32'0 0.0
2018-Aug-12 23:00N 10°24' W 075°32'0 0.0
2018-Aug-12 22:30N 10°24' W 075°32'0 0.0
2018-Aug-12 21:58N 10°24' W 075°32'0 0.0
2018-Aug-12 21:23N 10°24' W 075°32'0 0.0
2018-Aug-12 20:58N 10°24' W 075°32'0 0.0
2018-Aug-12 20:28N 10°24' W 075°32'0 0.0
2018-Aug-12 19:45N 10°24' W 075°32'0 0.0
2018-Aug-12 19:30N 10°24' W 075°32'0 0.0
2018-Aug-12 18:55N 10°24' W 075°32'0 0.0
2018-Aug-12 18:16N 10°24' W 075°32'0 0.0
2018-Aug-12 17:58N 10°24' W 075°32'0 0.0
2018-Aug-12 17:28N 10°24' W 075°32'0 0.0
2018-Aug-12 15:58N 10°24' W 075°32'0 0.0
2018-Aug-12 15:22N 10°24' W 075°32'0 0.7
2018-Aug-12 14:59N 10°24' W 075°32'4 7.2
2018-Aug-12 14:30N 10°21' W 075°32'510.7
2018-Aug-12 13:59N 10°19' W 075°37'612.3
2018-Aug-12 13:30N 10°21' W 075°43'713.8
2018-Aug-12 13:00N 10°28' W 075°42'814.9
2018-Aug-12 12:29N 10°36' W 075°41'814.7
2018-Aug-12 11:57N 10°43' W 075°39'814.6
2018-Aug-12 11:26N 10°51' W 075°37'  
2018-Aug-10 03:23N 14°31' W 061°28'716.6
2018-Aug-10 02:56N 14°32' W 061°21'716.3
2018-Aug-10 02:29N 14°34' W 061°13'814.3
2018-Aug-10 01:57N 14°35' W 061°06'2 5.5
2018-Aug-10 01:30N 14°35' W 061°03'0 0.0
2018-Aug-09 22:42N 14°35' W 061°03'0 0.0
2018-Aug-09 20:26N 14°35' W 061°03'0 0.0
2018-Aug-09 19:44N 14°35' W 061°03'0 0.0
2018-Aug-09 19:17N 14°35' W 061°03'0 0.0
2018-Aug-09 17:26N 14°35' W 061°03'0 0.0
2018-Aug-09 15:29N 14°35' W 061°03'0 0.0
2018-Aug-09 14:44N 14°35' W 061°03'0 0.0
2018-Aug-09 14:01N 14°35' W 061°03'0 0.0
2018-Aug-09 14:00N 14°35' W 061°03'0 0.0
2018-Aug-09 13:05N 14°35' W 061°03'0 0.0
2018-Aug-09 10:24N 14°35' W 061°03'0 0.5
2018-Aug-09 09:57N 14°36' W 061°03'3 4.6
2018-Aug-09 09:22N 14°35' W 061°06'2 5.2
2018-Aug-09 09:00N 14°35' W 061°08'610.5
2018-Aug-09 08:26N 14°33' W 061°14'716.8
2018-Aug-09 08:00N 14°39' W 061°18'  
Track history (hours):
 
Tides and Currents Weather Stations Pressure Air Temp Water Temp Dewpoint Dewpoint Depression Visibility Wind Speed Wind Dir Waves Ship Positions

Fleur N

Last reported at 2018-Aug-14 23:28 UTC. Time now 2018-Aug-14 23:44 UTC.
Position N 09°22' W 079°53'.

Length 212 m; draft 10.1 m.

Type: Ship (hazmat cat A). MMSI: 209787000.

Date/timePositionNaut miles runAvg speedWind from/ knotsBaromVisibWave heightAir tempDewpointWater temp
2018-Aug-14 23:28N 09°22' W 079°53'0 0.0
2018-Aug-14 22:58N 09°22' W 079°53'0 0.0
2018-Aug-14 22:28N 09°22' W 079°53'0 0.0
2018-Aug-14 21:58N 09°22' W 079°53'0 0.0
2018-Aug-14 21:28N 09°22' W 079°53'0 0.0
2018-Aug-14 20:58N 09°22' W 079°53'0 0.0
2018-Aug-14 20:28N 09°22' W 079°53'0 0.0
2018-Aug-14 19:58N 09°22' W 079°53'0 0.0
2018-Aug-14 19:31N 09°22' W 079°53'0 0.0
2018-Aug-14 18:58N 09°22' W 079°53'0 0.0
2018-Aug-14 18:29N 09°22' W 079°53'0 0.0
2018-Aug-14 17:59N 09°22' W 079°53'0 0.0
2018-Aug-14 17:29N 09°22' W 079°53'0 0.0
2018-Aug-14 16:59N 09°22' W 079°53'0 0.0
2018-Aug-14 16:29N 09°22' W 079°53'0 0.0
2018-Aug-14 15:59N 09°22' W 079°53'0 0.0
2018-Aug-14 15:29N 09°22' W 079°53'0 0.0
2018-Aug-14 14:59N 09°22' W 079°53'0 0.0
2018-Aug-14 14:29N 09°22' W 079°53'0 0.0
2018-Aug-14 13:59N 09°22' W 079°53'0 0.0
2018-Aug-14 13:29N 09°22' W 079°53'0 0.0
2018-Aug-14 12:43N 09°22' W 079°53'1 2.2
2018-Aug-14 12:29N 09°22' W 079°53'3 5.7
2018-Aug-14 11:52N 09°25' W 079°54'243 7.7
2018-Aug-13 04:11N 10°17' W 075°53'712.7
2018-Aug-13 03:41N 10°18' W 075°46'312.8
2018-Aug-13 03:27N 10°18' W 075°43'612.8
2018-Aug-13 02:59N 10°19' W 075°37'510.2
2018-Aug-13 02:30N 10°19' W 075°32'5 9.0
2018-Aug-13 01:58N 10°24' W 075°33'0 0.4
2018-Aug-13 01:20N 10°24' W 075°32'0 0.0
2018-Aug-13 00:56N 10°24' W 075°32'0 0.0
2018-Aug-13 00:29N 10°24' W 075°32'0 0.0
2018-Aug-12 23:56N 10°24' W 075°32'0 0.0
2018-Aug-12 23:19N 10°24' W 075°32'0 0.0
2018-Aug-12 23:00N 10°24' W 075°32'0 0.0
2018-Aug-12 22:30N 10°24' W 075°32'0 0.0
2018-Aug-12 21:58N 10°24' W 075°32'0 0.0
2018-Aug-12 21:23N 10°24' W 075°32'0 0.0
2018-Aug-12 20:58N 10°24' W 075°32'0 0.0
2018-Aug-12 20:28N 10°24' W 075°32'0 0.0
2018-Aug-12 19:45N 10°24' W 075°32'0 0.0
2018-Aug-12 19:30N 10°24' W 075°32'0 0.0
2018-Aug-12 18:55N 10°24' W 075°32'0 0.0
2018-Aug-12 18:16N 10°24' W 075°32'0 0.0
2018-Aug-12 17:58N 10°24' W 075°32'0 0.0
2018-Aug-12 17:28N 10°24' W 075°32'0 0.0
2018-Aug-12 15:58N 10°24' W 075°32'0 0.0
2018-Aug-12 15:22N 10°24' W 075°32'0 0.7
2018-Aug-12 14:59N 10°24' W 075°32'4 7.2
2018-Aug-12 14:30N 10°21' W 075°32'510.7
2018-Aug-12 13:59N 10°19' W 075°37'612.3
2018-Aug-12 13:30N 10°21' W 075°43'713.8
2018-Aug-12 13:00N 10°28' W 075°42'814.9
2018-Aug-12 12:29N 10°36' W 075°41'814.7
2018-Aug-12 11:57N 10°43' W 075°39'814.6
2018-Aug-12 11:26N 10°51' W 075°37'  
2018-Aug-10 03:23N 14°31' W 061°28'716.6
2018-Aug-10 02:56N 14°32' W 061°21'716.3
2018-Aug-10 02:29N 14°34' W 061°13'814.3
2018-Aug-10 01:57N 14°35' W 061°06'2 5.5
2018-Aug-10 01:30N 14°35' W 061°03'0 0.0
2018-Aug-09 22:42N 14°35' W 061°03'0 0.0
2018-Aug-09 20:26N 14°35' W 061°03'0 0.0
2018-Aug-09 19:44N 14°35' W 061°03'0 0.0
2018-Aug-09 19:17N 14°35' W 061°03'0 0.0
2018-Aug-09 17:26N 14°35' W 061°03'0 0.0
2018-Aug-09 15:29N 14°35' W 061°03'0 0.0
2018-Aug-09 14:44N 14°35' W 061°03'0 0.0
2018-Aug-09 14:01N 14°35' W 061°03'0 0.0
2018-Aug-09 14:00N 14°35' W 061°03'0 0.0
2018-Aug-09 13:05N 14°35' W 061°03'0 0.0
2018-Aug-09 10:24N 14°35' W 061°03'0 0.5
2018-Aug-09 09:57N 14°36' W 061°03'3 4.6
2018-Aug-09 09:22N 14°35' W 061°06'2 5.2
2018-Aug-09 09:00N 14°35' W 061°08'610.5
2018-Aug-09 08:26N 14°33' W 061°14'716.8
2018-Aug-09 08:00N 14°39' W 061°18'  

Dump ship's entire track history